sensor_id;sensor_type;location;lat;lon;timestamp;temperature;humidity
24618;DHT22;12762;51.730;5.356;2024-01-27T00:00:32;4.30;83.50
24618;DHT22;12762;51.730;5.356;2024-01-27T00:02:58;4.30;83.50
24618;DHT22;12762;51.730;5.356;2024-01-27T00:05:25;4.30;83.50
24618;DHT22;12762;51.730;5.356;2024-01-27T00:07:57;4.20;83.50
24618;DHT22;12762;51.730;5.356;2024-01-27T00:10:23;4.30;83.60
24618;DHT22;12762;51.730;5.356;2024-01-27T00:12:50;4.20;83.60
24618;DHT22;12762;51.730;5.356;2024-01-27T00:15:17;4.20;83.50
24618;DHT22;12762;51.730;5.356;2024-01-27T00:17:44;4.20;83.50
24618;DHT22;12762;51.730;5.356;2024-01-27T00:20:11;4.30;83.60
24618;DHT22;12762;51.730;5.356;2024-01-27T00:22:41;4.20;83.60
24618;DHT22;12762;51.730;5.356;2024-01-27T00:25:08;4.20;83.70
24618;DHT22;12762;51.730;5.356;2024-01-27T00:27:36;4.20;83.60
24618;DHT22;12762;51.730;5.356;2024-01-27T00:30:03;4.20;83.60
24618;DHT22;12762;51.730;5.356;2024-01-27T00:32:30;4.20;83.80
24618;DHT22;12762;51.730;5.356;2024-01-27T00:35:00;4.20;83.80
24618;DHT22;12762;51.730;5.356;2024-01-27T00:37:30;4.20;83.80
24618;DHT22;12762;51.730;5.356;2024-01-27T00:39:57;4.20;83.80
24618;DHT22;12762;51.730;5.356;2024-01-27T00:42:24;4.20;83.80
24618;DHT22;12762;51.730;5.356;2024-01-27T00:44:51;4.20;83.80
24618;DHT22;12762;51.730;5.356;2024-01-27T00:47:19;4.20;83.90
24618;DHT22;12762;51.730;5.356;2024-01-27T00:49:46;4.10;83.90
24618;DHT22;12762;51.730;5.356;2024-01-27T00:52:13;4.10;83.90
24618;DHT22;12762;51.730;5.356;2024-01-27T00:54:40;4.10;83.90
24618;DHT22;12762;51.730;5.356;2024-01-27T00:57:09;4.10;83.90
24618;DHT22;12762;51.730;5.356;2024-01-27T00:59:36;4.10;83.90
24618;DHT22;12762;51.730;5.356;2024-01-27T01:02:06;4.10;84.00
24618;DHT22;12762;51.730;5.356;2024-01-27T01:04:33;4.10;84.00
24618;DHT22;12762;51.730;5.356;2024-01-27T01:07:00;4.10;84.00
24618;DHT22;12762;51.730;5.356;2024-01-27T01:09:27;4.10;84.00
24618;DHT22;12762;51.730;5.356;2024-01-27T01:11:54;4.10;84.10
24618;DHT22;12762;51.730;5.356;2024-01-27T01:14:21;4.10;84.10
24618;DHT22;12762;51.730;5.356;2024-01-27T01:16:48;4.10;84.20
24618;DHT22;12762;51.730;5.356;2024-01-27T01:19:14;4.10;84.10
24618;DHT22;12762;51.730;5.356;2024-01-27T01:21:42;4.10;84.20
24618;DHT22;12762;51.730;5.356;2024-01-27T01:24:09;4.00;84.10
24618;DHT22;12762;51.730;5.356;2024-01-27T01:26:35;4.00;84.90
24618;DHT22;12762;51.730;5.356;2024-01-27T01:29:02;4.00;85.00
24618;DHT22;12762;51.730;5.356;2024-01-27T01:31:29;4.00;84.10
24618;DHT22;12762;51.730;5.356;2024-01-27T01:33:56;4.00;84.20
24618;DHT22;12762;51.730;5.356;2024-01-27T01:36:23;4.00;84.20
24618;DHT22;12762;51.730;5.356;2024-01-27T01:38:50;4.00;84.30
24618;DHT22;12762;51.730;5.356;2024-01-27T01:41:16;4.00;84.30
24618;DHT22;12762;51.730;5.356;2024-01-27T01:43:43;4.00;84.30
24618;DHT22;12762;51.730;5.356;2024-01-27T01:46:10;4.00;84.30
24618;DHT22;12762;51.730;5.356;2024-01-27T01:48:37;4.00;84.30
24618;DHT22;12762;51.730;5.356;2024-01-27T01:51:10;4.00;84.30
24618;DHT22;12762;51.730;5.356;2024-01-27T01:53:40;4.00;84.30
24618;DHT22;12762;51.730;5.356;2024-01-27T01:56:06;4.00;84.40
24618;DHT22;12762;51.730;5.356;2024-01-27T01:58:35;4.00;84.40
24618;DHT22;12762;51.730;5.356;2024-01-27T02:01:04;4.00;84.40
24618;DHT22;12762;51.730;5.356;2024-01-27T02:03:31;3.90;84.40
24618;DHT22;12762;51.730;5.356;2024-01-27T02:05:58;3.90;84.40
24618;DHT22;12762;51.730;5.356;2024-01-27T02:08:25;3.90;84.30
24618;DHT22;12762;51.730;5.356;2024-01-27T02:10:51;3.90;84.40
24618;DHT22;12762;51.730;5.356;2024-01-27T02:13:19;3.80;84.30
24618;DHT22;12762;51.730;5.356;2024-01-27T02:15:47;3.80;84.40
24618;DHT22;12762;51.730;5.356;2024-01-27T02:18:14;3.80;84.40
24618;DHT22;12762;51.730;5.356;2024-01-27T02:20:42;3.80;84.50
24618;DHT22;12762;51.730;5.356;2024-01-27T02:23:09;3.70;84.50
24618;DHT22;12762;51.730;5.356;2024-01-27T02:25:37;3.70;84.50
24618;DHT22;12762;51.730;5.356;2024-01-27T02:28:04;3.70;84.50
24618;DHT22;12762;51.730;5.356;2024-01-27T02:30:31;3.60;84.50
24618;DHT22;12762;51.730;5.356;2024-01-27T02:33:00;3.60;84.50
24618;DHT22;12762;51.730;5.356;2024-01-27T02:35:27;3.60;84.50
24618;DHT22;12762;51.730;5.356;2024-01-27T02:37:53;3.50;84.40
24618;DHT22;12762;51.730;5.356;2024-01-27T02:40:20;3.50;84.50
24618;DHT22;12762;51.730;5.356;2024-01-27T02:42:52;3.50;84.60
24618;DHT22;12762;51.730;5.356;2024-01-27T02:45:19;3.50;84.80
24618;DHT22;12762;51.730;5.356;2024-01-27T02:47:47;3.40;84.60
24618;DHT22;12762;51.730;5.356;2024-01-27T02:50:15;3.40;84.60
24618;DHT22;12762;51.730;5.356;2024-01-27T02:52:42;3.40;85.50
24618;DHT22;12762;51.730;5.356;2024-01-27T02:55:08;3.40;84.70
24618;DHT22;12762;51.730;5.356;2024-01-27T02:57:35;3.40;84.70
24618;DHT22;12762;51.730;5.356;2024-01-27T03:00:03;3.40;84.80
24618;DHT22;12762;51.730;5.356;2024-01-27T03:02:31;3.30;84.70
24618;DHT22;12762;51.730;5.356;2024-01-27T03:04:58;3.30;84.80
24618;DHT22;12762;51.730;5.356;2024-01-27T03:07:24;3.30;84.80
24618;DHT22;12762;51.730;5.356;2024-01-27T03:09:51;3.30;84.80
24618;DHT22;12762;51.730;5.356;2024-01-27T03:12:18;3.30;84.80
24618;DHT22;12762;51.730;5.356;2024-01-27T03:14:45;3.30;84.80
24618;DHT22;12762;51.730;5.356;2024-01-27T03:17:13;3.30;84.90
24618;DHT22;12762;51.730;5.356;2024-01-27T03:19:39;3.30;84.90
24618;DHT22;12762;51.730;5.356;2024-01-27T03:22:07;3.30;84.90
24618;DHT22;12762;51.730;5.356;2024-01-27T03:24:33;3.30;85.00
24618;DHT22;12762;51.730;5.356;2024-01-27T03:27:00;3.30;85.00
24618;DHT22;12762;51.730;5.356;2024-01-27T03:29:27;3.20;84.80
24618;DHT22;12762;51.730;5.356;2024-01-27T03:31:54;3.20;84.90
24618;DHT22;12762;51.730;5.356;2024-01-27T03:34:21;3.20;84.90
24618;DHT22;12762;51.730;5.356;2024-01-27T03:36:51;3.20;84.90
24618;DHT22;12762;51.730;5.356;2024-01-27T03:39:21;3.20;84.90
24618;DHT22;12762;51.730;5.356;2024-01-27T03:41:48;3.20;85.00
24618;DHT22;12762;51.730;5.356;2024-01-27T03:44:15;3.20;85.00
24618;DHT22;12762;51.730;5.356;2024-01-27T03:46:45;3.20;85.00
24618;DHT22;12762;51.730;5.356;2024-01-27T03:49:11;3.20;85.10
24618;DHT22;12762;51.730;5.356;2024-01-27T03:51:42;3.10;84.90
24618;DHT22;12762;51.730;5.356;2024-01-27T03:54:08;3.10;85.00
24618;DHT22;12762;51.730;5.356;2024-01-27T03:56:35;3.10;85.10
24618;DHT22;12762;51.730;5.356;2024-01-27T03:59:02;3.10;85.10
24618;DHT22;12762;51.730;5.356;2024-01-27T04:01:31;3.10;85.10
24618;DHT22;12762;51.730;5.356;2024-01-27T04:03:58;3.10;85.10
24618;DHT22;12762;51.730;5.356;2024-01-27T04:06:24;3.10;85.10
24618;DHT22;12762;51.730;5.356;2024-01-27T04:08:51;3.10;85.20
24618;DHT22;12762;51.730;5.356;2024-01-27T04:11:22;3.10;85.20
24618;DHT22;12762;51.730;5.356;2024-01-27T04:13:50;3.10;85.20
24618;DHT22;12762;51.730;5.356;2024-01-27T04:16:17;3.10;85.30
24618;DHT22;12762;51.730;5.356;2024-01-27T04:18:44;3.10;85.20
24618;DHT22;12762;51.730;5.356;2024-01-27T04:21:12;3.20;85.30
24618;DHT22;12762;51.730;5.356;2024-01-27T04:23:38;3.20;85.30
24618;DHT22;12762;51.730;5.356;2024-01-27T04:26:05;3.20;85.30
24618;DHT22;12762;51.730;5.356;2024-01-27T04:28:36;3.20;85.30
24618;DHT22;12762;51.730;5.356;2024-01-27T04:31:03;3.20;85.30
24618;DHT22;12762;51.730;5.356;2024-01-27T04:33:30;3.20;85.20
24618;DHT22;12762;51.730;5.356;2024-01-27T04:36:00;3.20;85.30
24618;DHT22;12762;51.730;5.356;2024-01-27T04:38:27;3.20;85.20
24618;DHT22;12762;51.730;5.356;2024-01-27T04:40:54;3.20;85.20
24618;DHT22;12762;51.730;5.356;2024-01-27T04:43:21;3.20;85.20
24618;DHT22;12762;51.730;5.356;2024-01-27T04:45:47;3.20;85.30
24618;DHT22;12762;51.730;5.356;2024-01-27T04:48:16;3.20;85.20
24618;DHT22;12762;51.730;5.356;2024-01-27T04:50:43;3.20;85.30
24618;DHT22;12762;51.730;5.356;2024-01-27T04:53:11;3.10;85.20
24618;DHT22;12762;51.730;5.356;2024-01-27T04:55:38;3.10;85.20
24618;DHT22;12762;51.730;5.356;2024-01-27T04:58:06;3.10;85.20
24618;DHT22;12762;51.730;5.356;2024-01-27T05:00:33;3.10;85.30
24618;DHT22;12762;51.730;5.356;2024-01-27T05:03:00;3.10;85.30
24618;DHT22;12762;51.730;5.356;2024-01-27T05:05:30;3.10;85.40
24618;DHT22;12762;51.730;5.356;2024-01-27T05:08:01;3.00;85.30
24618;DHT22;12762;51.730;5.356;2024-01-27T05:10:28;3.00;85.30
24618;DHT22;12762;51.730;5.356;2024-01-27T05:12:55;3.00;85.40
24618;DHT22;12762;51.730;5.356;2024-01-27T05:15:22;3.00;85.40
24618;DHT22;12762;51.730;5.356;2024-01-27T05:17:49;3.00;85.40
24618;DHT22;12762;51.730;5.356;2024-01-27T05:20:17;2.90;85.30
24618;DHT22;12762;51.730;5.356;2024-01-27T05:22:44;2.90;85.30
24618;DHT22;12762;51.730;5.356;2024-01-27T05:25:11;2.90;85.50
24618;DHT22;12762;51.730;5.356;2024-01-27T05:27:38;2.90;85.50
24618;DHT22;12762;51.730;5.356;2024-01-27T05:30:06;2.90;85.50
24618;DHT22;12762;51.730;5.356;2024-01-27T05:32:33;2.90;85.50
24618;DHT22;12762;51.730;5.356;2024-01-27T05:35:06;2.90;85.60
24618;DHT22;12762;51.730;5.356;2024-01-27T05:37:32;2.90;85.70
24618;DHT22;12762;51.730;5.356;2024-01-27T05:40:02;2.90;85.60
24618;DHT22;12762;51.730;5.356;2024-01-27T05:42:30;2.90;85.60
24618;DHT22;12762;51.730;5.356;2024-01-27T05:44:56;2.90;85.70
24618;DHT22;12762;51.730;5.356;2024-01-27T05:47:26;2.90;85.60
24618;DHT22;12762;51.730;5.356;2024-01-27T05:49:53;2.80;85.50
24618;DHT22;12762;51.730;5.356;2024-01-27T05:52:23;2.80;85.40
24618;DHT22;12762;51.730;5.356;2024-01-27T05:54:52;2.80;85.50
24618;DHT22;12762;51.730;5.356;2024-01-27T05:57:20;2.70;85.40
24618;DHT22;12762;51.730;5.356;2024-01-27T05:59:47;2.70;85.50
24618;DHT22;12762;51.730;5.356;2024-01-27T06:02:14;2.70;85.60
24618;DHT22;12762;51.730;5.356;2024-01-27T06:04:40;2.60;85.50
24618;DHT22;12762;51.730;5.356;2024-01-27T06:07:07;2.60;85.50
24618;DHT22;12762;51.730;5.356;2024-01-27T06:09:36;2.60;85.60
24618;DHT22;12762;51.730;5.356;2024-01-27T06:12:04;2.60;85.60
24618;DHT22;12762;51.730;5.356;2024-01-27T06:14:31;2.60;85.80
24618;DHT22;12762;51.730;5.356;2024-01-27T06:16:58;2.50;85.70
24618;DHT22;12762;51.730;5.356;2024-01-27T06:19:24;2.50;85.70
24618;DHT22;12762;51.730;5.356;2024-01-27T06:21:51;2.50;85.80
24618;DHT22;12762;51.730;5.356;2024-01-27T06:24:18;2.50;85.80
24618;DHT22;12762;51.730;5.356;2024-01-27T06:26:45;2.50;85.90
24618;DHT22;12762;51.730;5.356;2024-01-27T06:29:15;2.40;85.90
24618;DHT22;12762;51.730;5.356;2024-01-27T06:31:42;2.40;85.90
24618;DHT22;12762;51.730;5.356;2024-01-27T06:34:09;2.40;86.00
24618;DHT22;12762;51.730;5.356;2024-01-27T06:36:35;2.40;86.00
24618;DHT22;12762;51.730;5.356;2024-01-27T06:39:02;2.40;86.00
24618;DHT22;12762;51.730;5.356;2024-01-27T06:41:29;2.40;86.10
24618;DHT22;12762;51.730;5.356;2024-01-27T06:43:56;2.30;86.00
24618;DHT22;12762;51.730;5.356;2024-01-27T06:46:23;2.30;86.00
24618;DHT22;12762;51.730;5.356;2024-01-27T06:48:51;2.30;86.00
24618;DHT22;12762;51.730;5.356;2024-01-27T06:51:18;2.30;86.00
24618;DHT22;12762;51.730;5.356;2024-01-27T06:53:47;2.30;86.10
24618;DHT22;12762;51.730;5.356;2024-01-27T06:56:15;2.30;86.20
24618;DHT22;12762;51.730;5.356;2024-01-27T06:58:48;2.30;86.20
24618;DHT22;12762;51.730;5.356;2024-01-27T07:01:16;2.30;86.20
24618;DHT22;12762;51.730;5.356;2024-01-27T07:03:42;2.30;86.20
24618;DHT22;12762;51.730;5.356;2024-01-27T07:06:11;2.20;86.10
24618;DHT22;12762;51.730;5.356;2024-01-27T07:08:38;2.20;87.00
24618;DHT22;12762;51.730;5.356;2024-01-27T07:11:05;2.20;86.30
24618;DHT22;12762;51.730;5.356;2024-01-27T07:13:32;2.20;86.30
24618;DHT22;12762;51.730;5.356;2024-01-27T07:15:59;2.20;86.20
24618;DHT22;12762;51.730;5.356;2024-01-27T07:18:26;2.20;86.30
24618;DHT22;12762;51.730;5.356;2024-01-27T07:20:53;2.20;86.30
24618;DHT22;12762;51.730;5.356;2024-01-27T07:23:21;2.20;86.30
24618;DHT22;12762;51.730;5.356;2024-01-27T07:25:48;2.20;86.30
24618;DHT22;12762;51.730;5.356;2024-01-27T07:28:15;2.20;86.40
24618;DHT22;12762;51.730;5.356;2024-01-27T07:30:45;2.20;86.30
24618;DHT22;12762;51.730;5.356;2024-01-27T07:33:12;2.20;86.40
24618;DHT22;12762;51.730;5.356;2024-01-27T07:35:40;2.20;86.40
24618;DHT22;12762;51.730;5.356;2024-01-27T07:38:07;2.20;86.40
24618;DHT22;12762;51.730;5.356;2024-01-27T07:40:35;2.20;86.50
24618;DHT22;12762;51.730;5.356;2024-01-27T07:43:02;2.20;86.50
24618;DHT22;12762;51.730;5.356;2024-01-27T07:45:29;2.20;87.40
24618;DHT22;12762;51.730;5.356;2024-01-27T07:47:56;2.20;86.60
24618;DHT22;12762;51.730;5.356;2024-01-27T07:50:27;2.20;86.70
24618;DHT22;12762;51.730;5.356;2024-01-27T07:52:53;2.20;86.70
24618;DHT22;12762;51.730;5.356;2024-01-27T07:55:20;2.20;86.70
24618;DHT22;12762;51.730;5.356;2024-01-27T07:57:47;2.30;86.80
24618;DHT22;12762;51.730;5.356;2024-01-27T08:00:14;2.30;86.80
24618;DHT22;12762;51.730;5.356;2024-01-27T08:02:42;2.30;86.80
24618;DHT22;12762;51.730;5.356;2024-01-27T08:05:12;2.30;86.80
24618;DHT22;12762;51.730;5.356;2024-01-27T08:07:42;2.30;86.80
24618;DHT22;12762;51.730;5.356;2024-01-27T08:10:09;2.40;86.90
24618;DHT22;12762;51.730;5.356;2024-01-27T08:12:37;2.40;86.80
24618;DHT22;12762;51.730;5.356;2024-01-27T08:15:05;2.40;86.80
24618;DHT22;12762;51.730;5.356;2024-01-27T08:17:32;2.40;87.10
24618;DHT22;12762;51.730;5.356;2024-01-27T08:19:59;2.40;86.70
24618;DHT22;12762;51.730;5.356;2024-01-27T08:22:26;2.50;86.90
24618;DHT22;12762;51.730;5.356;2024-01-27T08:24:52;2.50;86.90
24618;DHT22;12762;51.730;5.356;2024-01-27T08:27:19;2.50;86.80
24618;DHT22;12762;51.730;5.356;2024-01-27T08:29:46;2.50;86.80
24618;DHT22;12762;51.730;5.356;2024-01-27T08:32:13;2.50;86.80
24618;DHT22;12762;51.730;5.356;2024-01-27T08:34:40;2.60;86.90
24618;DHT22;12762;51.730;5.356;2024-01-27T08:37:18;2.60;86.90
24618;DHT22;12762;51.730;5.356;2024-01-27T08:39:46;2.70;87.00
24618;DHT22;12762;51.730;5.356;2024-01-27T08:42:13;2.70;86.90
24618;DHT22;12762;51.730;5.356;2024-01-27T08:44:40;2.80;87.10
24618;DHT22;12762;51.730;5.356;2024-01-27T08:47:07;3.40;88.60
24618;DHT22;12762;51.730;5.356;2024-01-27T08:49:36;4.40;89.20
24618;DHT22;12762;51.730;5.356;2024-01-27T08:52:03;5.00;88.20
24618;DHT22;12762;51.730;5.356;2024-01-27T08:54:30;5.40;87.10
24618;DHT22;12762;51.730;5.356;2024-01-27T08:56:57;6.00;87.10
24618;DHT22;12762;51.730;5.356;2024-01-27T08:59:24;6.80;86.90
24618;DHT22;12762;51.730;5.356;2024-01-27T09:01:51;7.40;85.70
24618;DHT22;12762;51.730;5.356;2024-01-27T09:04:18;8.00;84.80
24618;DHT22;12762;51.730;5.356;2024-01-27T09:06:45;8.60;84.10
24618;DHT22;12762;51.730;5.356;2024-01-27T09:09:12;9.10;83.10
24618;DHT22;12762;51.730;5.356;2024-01-27T09:11:39;9.60;82.20
24618;DHT22;12762;51.730;5.356;2024-01-27T09:14:06;9.80;80.80
24618;DHT22;12762;51.730;5.356;2024-01-27T09:16:34;9.90;80.10
24618;DHT22;12762;51.730;5.356;2024-01-27T09:19:01;9.70;79.40
24618;DHT22;12762;51.730;5.356;2024-01-27T09:21:28;9.20;79.90
24618;DHT22;12762;51.730;5.356;2024-01-27T09:23:58;8.70;78.90
24618;DHT22;12762;51.730;5.356;2024-01-27T09:26:25;8.20;79.10
24618;DHT22;12762;51.730;5.356;2024-01-27T09:28:51;7.80;79.40
24618;DHT22;12762;51.730;5.356;2024-01-27T09:31:24;7.50;79.80
24618;DHT22;12762;51.730;5.356;2024-01-27T09:33:53;7.20;80.20
24618;DHT22;12762;51.730;5.356;2024-01-27T09:36:21;6.90;80.70
24618;DHT22;12762;51.730;5.356;2024-01-27T09:38:49;6.70;82.00
24618;DHT22;12762;51.730;5.356;2024-01-27T09:41:16;6.60;81.70
24618;DHT22;12762;51.730;5.356;2024-01-27T09:43:43;6.40;82.10
24618;DHT22;12762;51.730;5.356;2024-01-27T09:46:15;6.30;82.40
24618;DHT22;12762;51.730;5.356;2024-01-27T09:48:47;6.30;82.90
24618;DHT22;12762;51.730;5.356;2024-01-27T09:51:15;6.20;83.10
24618;DHT22;12762;51.730;5.356;2024-01-27T09:53:42;6.20;83.30
24618;DHT22;12762;51.730;5.356;2024-01-27T09:56:09;6.10;83.50
24618;DHT22;12762;51.730;5.356;2024-01-27T09:58:37;6.10;83.80
24618;DHT22;12762;51.730;5.356;2024-01-27T10:01:06;6.20;84.10
24618;DHT22;12762;51.730;5.356;2024-01-27T10:03:34;6.20;84.30
24618;DHT22;12762;51.730;5.356;2024-01-27T10:06:02;6.30;84.60
24618;DHT22;12762;51.730;5.356;2024-01-27T10:08:30;6.40;84.80
24618;DHT22;12762;51.730;5.356;2024-01-27T10:10:57;6.40;84.80
24618;DHT22;12762;51.730;5.356;2024-01-27T10:13:24;6.50;85.00
24618;DHT22;12762;51.730;5.356;2024-01-27T10:16:04;6.60;85.00
24618;DHT22;12762;51.730;5.356;2024-01-27T10:18:35;6.70;85.00
24618;DHT22;12762;51.730;5.356;2024-01-27T10:21:15;6.70;84.90
24618;DHT22;12762;51.730;5.356;2024-01-27T10:23:43;6.80;85.10
24618;DHT22;12762;51.730;5.356;2024-01-27T10:26:13;6.90;85.10
24618;DHT22;12762;51.730;5.356;2024-01-27T10:28:39;7.00;85.20
24618;DHT22;12762;51.730;5.356;2024-01-27T10:31:12;7.10;85.30
24618;DHT22;12762;51.730;5.356;2024-01-27T10:33:39;7.20;85.30
24618;DHT22;12762;51.730;5.356;2024-01-27T10:36:06;7.30;85.10
24618;DHT22;12762;51.730;5.356;2024-01-27T10:38:37;7.30;84.90
24618;DHT22;12762;51.730;5.356;2024-01-27T10:41:08;7.40;85.00
24618;DHT22;12762;51.730;5.356;2024-01-27T10:43:39;7.50;84.90
24618;DHT22;12762;51.730;5.356;2024-01-27T10:46:08;7.50;84.80
24618;DHT22;12762;51.730;5.356;2024-01-27T10:48:42;7.60;84.80
24618;DHT22;12762;51.730;5.356;2024-01-27T10:51:11;7.60;84.60
24618;DHT22;12762;51.730;5.356;2024-01-27T10:53:39;7.70;84.80
24618;DHT22;12762;51.730;5.356;2024-01-27T10:56:08;7.80;84.80
24618;DHT22;12762;51.730;5.356;2024-01-27T10:58:37;7.90;84.70
24618;DHT22;12762;51.730;5.356;2024-01-27T11:01:11;8.00;84.80
24618;DHT22;12762;51.730;5.356;2024-01-27T11:03:40;8.10;84.70
24618;DHT22;12762;51.730;5.356;2024-01-27T11:06:11;8.20;84.60
24618;DHT22;12762;51.730;5.356;2024-01-27T11:08:51;8.20;84.40
24618;DHT22;12762;51.730;5.356;2024-01-27T11:11:19;8.30;84.30
24618;DHT22;12762;51.730;5.356;2024-01-27T11:13:46;8.40;84.20
24618;DHT22;12762;51.730;5.356;2024-01-27T11:16:18;8.40;84.00
24618;DHT22;12762;51.730;5.356;2024-01-27T11:18:45;8.50;84.00
24618;DHT22;12762;51.730;5.356;2024-01-27T11:21:15;8.50;84.00
24618;DHT22;12762;51.730;5.356;2024-01-27T11:23:43;8.60;84.00
24618;DHT22;12762;51.730;5.356;2024-01-27T11:26:18;8.70;84.00
24618;DHT22;12762;51.730;5.356;2024-01-27T11:28:46;8.80;83.80
24618;DHT22;12762;51.730;5.356;2024-01-27T11:31:13;8.80;83.60
24618;DHT22;12762;51.730;5.356;2024-01-27T11:33:43;8.90;83.60
24618;DHT22;12762;51.730;5.356;2024-01-27T11:36:24;9.00;83.60
24618;DHT22;12762;51.730;5.356;2024-01-27T11:38:52;9.00;83.10
24618;DHT22;12762;51.730;5.356;2024-01-27T11:41:27;9.00;83.00
24618;DHT22;12762;51.730;5.356;2024-01-27T11:43:58;9.10;83.10
24618;DHT22;12762;51.730;5.356;2024-01-27T11:46:26;9.10;83.00
24618;DHT22;12762;51.730;5.356;2024-01-27T11:48:53;9.20;83.00
24618;DHT22;12762;51.730;5.356;2024-01-27T11:51:22;9.20;82.80
24618;DHT22;12762;51.730;5.356;2024-01-27T11:53:53;9.30;82.90
24618;DHT22;12762;51.730;5.356;2024-01-27T11:56:20;9.40;82.90
24618;DHT22;12762;51.730;5.356;2024-01-27T11:58:49;9.50;82.90
24618;DHT22;12762;51.730;5.356;2024-01-27T12:01:16;9.60;82.70
24618;DHT22;12762;51.730;5.356;2024-01-27T12:03:43;9.60;82.60
24618;DHT22;12762;51.730;5.356;2024-01-27T12:06:11;9.70;82.50
24618;DHT22;12762;51.730;5.356;2024-01-27T12:08:46;9.80;82.40
24618;DHT22;12762;51.730;5.356;2024-01-27T12:11:16;9.90;82.40
24618;DHT22;12762;51.730;5.356;2024-01-27T12:13:49;9.90;82.20
24618;DHT22;12762;51.730;5.356;2024-01-27T12:16:16;10.00;81.10
24618;DHT22;12762;51.730;5.356;2024-01-27T12:18:46;10.10;80.90
24618;DHT22;12762;51.730;5.356;2024-01-27T12:21:19;10.10;80.70
24618;DHT22;12762;51.730;5.356;2024-01-27T12:23:53;10.10;80.30
24618;DHT22;12762;51.730;5.356;2024-01-27T12:26:27;10.10;80.20
24618;DHT22;12762;51.730;5.356;2024-01-27T12:28:55;10.20;80.30
24618;DHT22;12762;51.730;5.356;2024-01-27T12:31:23;10.30;80.30
24618;DHT22;12762;51.730;5.356;2024-01-27T12:33:56;10.30;80.00
24618;DHT22;12762;51.730;5.356;2024-01-27T12:36:26;10.40;79.50
24618;DHT22;12762;51.730;5.356;2024-01-27T12:39:01;10.40;79.50
24618;DHT22;12762;51.730;5.356;2024-01-27T12:41:33;10.40;79.20
24618;DHT22;12762;51.730;5.356;2024-01-27T12:44:01;10.40;79.30
24618;DHT22;12762;51.730;5.356;2024-01-27T12:46:28;10.50;79.20
24618;DHT22;12762;51.730;5.356;2024-01-27T12:48:55;10.50;78.70
24618;DHT22;12762;51.730;5.356;2024-01-27T12:51:22;10.50;78.80
24618;DHT22;12762;51.730;5.356;2024-01-27T12:53:51;10.50;78.80
24618;DHT22;12762;51.730;5.356;2024-01-27T12:56:18;10.50;78.60
24618;DHT22;12762;51.730;5.356;2024-01-27T12:58:45;10.50;78.00
24618;DHT22;12762;51.730;5.356;2024-01-27T13:01:15;10.50;78.10
24618;DHT22;12762;51.730;5.356;2024-01-27T13:03:44;10.40;78.10
24618;DHT22;12762;51.730;5.356;2024-01-27T13:06:14;10.40;78.10
24618;DHT22;12762;51.730;5.356;2024-01-27T13:08:45;10.40;78.00
24618;DHT22;12762;51.730;5.356;2024-01-27T13:11:11;10.50;78.00
24618;DHT22;12762;51.730;5.356;2024-01-27T13:13:42;10.50;78.10
24618;DHT22;12762;51.730;5.356;2024-01-27T13:16:13;10.50;77.70
24618;DHT22;12762;51.730;5.356;2024-01-27T13:19:03;10.50;77.70
24618;DHT22;12762;51.730;5.356;2024-01-27T13:21:35;10.60;77.70
24618;DHT22;12762;51.730;5.356;2024-01-27T13:24:05;10.60;77.50
24618;DHT22;12762;51.730;5.356;2024-01-27T13:26:50;10.60;77.60
24618;DHT22;12762;51.730;5.356;2024-01-27T13:29:23;10.60;77.60
24618;DHT22;12762;51.730;5.356;2024-01-27T13:31:50;10.70;77.50
24618;DHT22;12762;51.730;5.356;2024-01-27T13:34:18;10.70;78.10
24618;DHT22;12762;51.730;5.356;2024-01-27T13:36:50;10.70;77.10
24618;DHT22;12762;51.730;5.356;2024-01-27T13:39:17;10.80;77.30
24618;DHT22;12762;51.730;5.356;2024-01-27T13:41:44;10.80;76.80
24618;DHT22;12762;51.730;5.356;2024-01-27T13:44:11;10.80;76.90
24618;DHT22;12762;51.730;5.356;2024-01-27T13:46:42;10.80;76.80
24618;DHT22;12762;51.730;5.356;2024-01-27T13:49:08;10.80;76.70
24618;DHT22;12762;51.730;5.356;2024-01-27T13:51:35;10.80;76.60
24618;DHT22;12762;51.730;5.356;2024-01-27T13:54:02;10.80;76.50
24618;DHT22;12762;51.730;5.356;2024-01-27T13:56:29;10.80;76.30
24618;DHT22;12762;51.730;5.356;2024-01-27T13:58:59;10.80;76.30
24618;DHT22;12762;51.730;5.356;2024-01-27T14:01:26;10.80;75.80
24618;DHT22;12762;51.730;5.356;2024-01-27T14:03:52;10.80;76.00
24618;DHT22;12762;51.730;5.356;2024-01-27T14:06:19;10.80;75.70
24618;DHT22;12762;51.730;5.356;2024-01-27T14:08:48;10.70;75.80
24618;DHT22;12762;51.730;5.356;2024-01-27T14:11:15;10.70;75.60
24618;DHT22;12762;51.730;5.356;2024-01-27T14:13:42;10.60;75.60
24618;DHT22;12762;51.730;5.356;2024-01-27T14:16:10;10.60;75.50
24618;DHT22;12762;51.730;5.356;2024-01-27T14:18:36;10.50;75.50
24618;DHT22;12762;51.730;5.356;2024-01-27T14:21:04;10.50;75.60
24618;DHT22;12762;51.730;5.356;2024-01-27T14:23:31;10.40;75.60
24618;DHT22;12762;51.730;5.356;2024-01-27T14:25:58;10.40;75.70
24618;DHT22;12762;51.730;5.356;2024-01-27T14:28:25;10.40;75.70
24618;DHT22;12762;51.730;5.356;2024-01-27T14:30:52;10.40;75.60
24618;DHT22;12762;51.730;5.356;2024-01-27T14:33:19;10.40;75.50
24618;DHT22;12762;51.730;5.356;2024-01-27T14:35:47;10.30;75.20
24618;DHT22;12762;51.730;5.356;2024-01-27T14:38:14;10.30;75.30
24618;DHT22;12762;51.730;5.356;2024-01-27T14:40:41;10.20;75.20
24618;DHT22;12762;51.730;5.356;2024-01-27T14:43:08;10.20;75.30
24618;DHT22;12762;51.730;5.356;2024-01-27T14:45:39;10.10;75.30
24618;DHT22;12762;51.730;5.356;2024-01-27T14:48:06;10.00;75.20
24618;DHT22;12762;51.730;5.356;2024-01-27T14:50:33;10.00;75.30
24618;DHT22;12762;51.730;5.356;2024-01-27T14:53:00;9.90;76.30
24618;DHT22;12762;51.730;5.356;2024-01-27T14:55:30;9.80;76.30
24618;DHT22;12762;51.730;5.356;2024-01-27T14:57:57;9.80;76.40
24618;DHT22;12762;51.730;5.356;2024-01-27T15:00:27;9.70;76.40
24618;DHT22;12762;51.730;5.356;2024-01-27T15:02:53;9.70;76.50
24618;DHT22;12762;51.730;5.356;2024-01-27T15:05:20;9.60;76.50
24618;DHT22;12762;51.730;5.356;2024-01-27T15:07:47;9.60;76.60
24618;DHT22;12762;51.730;5.356;2024-01-27T15:10:14;9.50;76.50
24618;DHT22;12762;51.730;5.356;2024-01-27T15:12:41;9.50;76.60
24618;DHT22;12762;51.730;5.356;2024-01-27T15:15:08;9.40;76.50
24618;DHT22;12762;51.730;5.356;2024-01-27T15:17:36;9.40;76.60
24618;DHT22;12762;51.730;5.356;2024-01-27T15:20:05;9.40;76.70
24618;DHT22;12762;51.730;5.356;2024-01-27T15:22:33;9.40;76.70
24618;DHT22;12762;51.730;5.356;2024-01-27T15:24:59;9.40;76.70
24618;DHT22;12762;51.730;5.356;2024-01-27T15:27:26;9.30;76.70
24618;DHT22;12762;51.730;5.356;2024-01-27T15:29:53;9.30;76.60
24618;DHT22;12762;51.730;5.356;2024-01-27T15:32:22;9.20;76.60
24618;DHT22;12762;51.730;5.356;2024-01-27T15:34:50;9.20;76.70
24618;DHT22;12762;51.730;5.356;2024-01-27T15:37:18;9.10;76.60
24618;DHT22;12762;51.730;5.356;2024-01-27T15:39:45;9.00;76.50
24618;DHT22;12762;51.730;5.356;2024-01-27T15:42:14;9.00;76.60
24618;DHT22;12762;51.730;5.356;2024-01-27T15:44:41;9.00;76.70
24618;DHT22;12762;51.730;5.356;2024-01-27T15:47:08;8.90;76.70